Time;durP1;ratioP1;P1;durP2;ratioP2;P2;SDS_P1;SDS_P2;PMS_P1;PMS_P2;Temp;Humidity;BMP_temperature;BMP_pressure;BME280_temperature;BME280_humidity;BME280_pressure;Samples;Min_cycle;Max_cycle;Signal;HPM_P1;HPM_P2
2024/01/15 00:01:22;;;;;;;;;35.00;30.00;;;;;4.21;81.11;100346.25;4830779;29;45408;-83
2024/01/15 00:03:47;;;;;;;;;32.00;28.67;;;;;4.20;81.00;100333.94;4829930;29;47154;-84
2024/01/15 00:06:12;;;;;;;;;38.33;30.00;;;;;4.23;80.38;100337.53;4828378;29;45830;-83
2024/01/15 00:08:39;;;;;;;;;37.00;30.67;;;;;4.25;80.63;100326.19;4830116;29;45468;-82
2024/01/15 00:11:04;;;;;;;;;35.33;25.00;;;;;4.22;80.99;100312.91;4829732;29;45390;-84
2024/01/15 00:13:29;;;;;;;;;35.33;30.67;;;;;4.25;80.52;100313.03;4830413;29;46492;-82
2024/01/15 00:15:55;;;;;;;;;39.33;31.00;;;;;4.30;80.55;100315.81;4828593;29;44876;-84
2024/01/15 00:18:20;;;;;;;;;28.00;27.33;;;;;4.27;81.04;100308.72;4829373;29;45313;-84
2024/01/15 00:20:45;;;;;;;;;36.67;32.33;;;;;4.25;80.79;100313.03;4829720;29;45984;-83
2024/01/15 00:23:11;;;;;;;;;29.67;28.00;;;;;4.24;80.99;100307.72;4832156;29;47243;-83
2024/01/15 00:25:38;;;;;;;;;37.33;28.67;;;;;4.24;81.38;100297.19;4830249;29;45451;-83
2024/01/15 00:28:03;;;;;;;;;33.00;28.67;;;;;4.23;80.91;100308.56;4833291;29;45610;-83
2024/01/15 00:31:42;;;;;;;;;28.67;25.67;;;;;4.41;80.73;100303.91;4830073;29;45502;-81
2024/01/15 00:34:14;;;;;;;;;36.33;30.00;;;;;4.41;81.22;100293.38;4849748;29;47094;-83
2024/01/15 00:36:40;;;;;;;;;28.67;26.00;;;;;4.33;81.21;100294.88;4852187;29;45472;-83
2024/01/15 00:39:05;;;;;;;;;29.00;28.00;;;;;4.32;81.40;100285.16;4837106;29;45489;-81
2024/01/15 00:41:31;;;;;;;;;31.33;28.67;;;;;4.40;81.97;100288.94;4836943;29;45513;-82
2024/01/15 00:43:57;;;;;;;;;37.67;33.00;;;;;4.41;81.32;100290.72;4835897;29;48065;-82
2024/01/15 00:46:22;;;;;;;;;36.33;30.33;;;;;4.43;81.67;100282.88;4832439;29;45734;-83
2024/01/15 00:48:48;;;;;;;;;32.67;29.67;;;;;4.40;81.83;100279.31;4849197;29;45411;-82
2024/01/15 00:51:13;;;;;;;;;28.67;28.67;;;;;4.46;81.35;100268.06;4831849;29;45516;-82
2024/01/15 00:53:38;;;;;;;;;35.67;30.67;;;;;4.46;81.32;100275.94;4832277;29;46922;-83
2024/01/15 00:56:04;;;;;;;;;22.67;22.33;;;;;4.46;81.48;100265.41;4830519;29;45901;-82
2024/01/15 00:58:29;;;;;;;;;32.33;26.00;;;;;4.38;81.86;100252.03;4851156;29;45567;-82
2024/01/15 01:00:55;;;;;;;;;29.67;23.67;;;;;4.43;81.74;100254.81;4850767;29;45406;-81
2024/01/15 01:03:21;;;;;;;;;28.00;27.33;;;;;4.52;81.95;100255.06;4846872;29;45359;-82
2024/01/15 01:05:49;;;;;;;;;33.67;33.67;;;;;4.52;81.90;100252.44;4830955;29;45429;-78
2024/01/15 01:08:15;;;;;;;;;28.67;28.67;;;;;4.48;81.55;100255.81;4832426;29;44794;-77
2024/01/15 01:10:45;;;;;;;;;35.33;32.00;;;;;4.45;81.01;100244.34;4832435;29;44932;-79
2024/01/15 01:13:10;;;;;;;;;29.00;28.33;;;;;4.46;81.66;100246.09;4831251;29;47369;-80
2024/01/15 01:15:36;;;;;;;;;37.33;30.00;;;;;4.38;81.63;100249.41;4831004;29;45399;-79
2024/01/15 01:18:02;;;;;;;;;31.33;25.00;;;;;4.46;82.00;100257.53;4830537;29;45185;-79
2024/01/15 01:20:27;;;;;;;;;25.67;23.67;;;;;4.44;81.75;100243.41;4830670;29;45325;-79
2024/01/15 01:22:52;;;;;;;;;28.00;25.33;;;;;4.44;81.78;100253.94;4847527;29;45546;-79
2024/01/15 01:26:14;;;;;;;;;30.00;27.33;;;;;4.63;82.58;100246.63;4827884;29;45378;-78
2024/01/15 01:28:39;;;;;;;;;27.00;25.67;;;;;4.49;81.96;100241.84;4848243;29;45269;-80
2024/01/15 01:31:05;;;;;;;;;31.00;28.33;;;;;4.53;81.86;100233.19;4848535;29;45320;-80
2024/01/15 01:33:30;;;;;;;;;30.33;26.00;;;;;4.55;82.27;100230.59;4846933;29;45706;-80
2024/01/15 01:35:57;;;;;;;;;32.33;29.00;;;;;4.57;81.60;100224.53;4830237;29;45437;-80
2024/01/15 01:38:22;;;;;;;;;28.00;26.67;;;;;4.58;82.59;100226.28;4830405;29;44814;-79
2024/01/15 01:40:48;;;;;;;;;33.33;30.00;;;;;4.64;82.11;100240.50;4848081;29;44793;-80
2024/01/15 01:43:13;;;;;;;;;29.33;25.00;;;;;4.61;82.78;100229.03;4830970;29;46176;-80
2024/01/15 01:45:38;;;;;;;;;40.67;35.33;;;;;4.64;82.36;100230.84;4831831;29;45504;-80
2024/01/15 01:48:04;;;;;;;;;31.00;29.67;;;;;4.71;82.29;100231.94;4830845;29;45301;-79
2024/01/15 01:50:31;;;;;;;;;34.00;29.00;;;;;4.70;82.25;100222.25;4830887;29;45644;-80
2024/01/15 01:52:57;;;;;;;;;33.33;30.33;;;;;4.61;82.11;100205.34;4830032;29;47355;-80
2024/01/15 01:55:26;;;;;;;;;28.67;26.67;;;;;4.77;82.13;100218.97;4829629;29;46291;-80
2024/01/15 01:57:51;;;;;;;;;28.00;24.33;;;;;4.71;82.91;100218.78;4829643;29;45468;-80
2024/01/15 02:00:17;;;;;;;;;34.67;28.33;;;;;4.76;82.81;100220.69;4829677;29;45484;-80
2024/01/15 02:02:45;;;;;;;;;27.33;24.33;;;;;4.79;83.17;100220.78;4846011;29;45918;-80
2024/01/15 02:05:13;;;;;;;;;25.67;25.33;;;;;4.86;82.57;100206.03;4846864;29;45513;-80
2024/01/15 02:07:39;;;;;;;;;30.00;28.00;;;;;4.79;82.69;100191.81;4829271;29;44876;-79
2024/01/15 02:10:06;;;;;;;;;29.33;27.67;;;;;4.76;82.89;100199.59;4829283;29;45401;-80
2024/01/15 02:12:31;;;;;;;;;24.00;20.67;;;;;4.66;82.77;100183.50;4829402;29;48124;-81
2024/01/15 02:14:57;;;;;;;;;27.33;23.67;;;;;4.65;83.06;100185.25;4846136;29;45462;-80
2024/01/15 02:17:22;;;;;;;;;27.33;27.33;;;;;4.63;82.98;100186.06;4829209;29;45421;-80
2024/01/15 02:19:50;;;;;;;;;30.00;26.00;;;;;4.58;83.15;100178.88;4838195;29;45481;-79
2024/01/15 02:22:15;;;;;;;;;32.00;25.67;;;;;4.55;82.88;100183.19;4864875;29;45527;-80
2024/01/15 02:24:40;;;;;;;;;24.00;23.00;;;;;4.63;83.36;100181.69;4847890;29;45513;-80
2024/01/15 02:27:06;;;;;;;;;31.33;26.00;;;;;4.70;82.97;100193.28;4848569;29;45785;-79
2024/01/15 02:29:38;;;;;;;;;27.00;26.67;;;;;4.84;83.39;100197.19;4864767;29;45466;-80
2024/01/15 02:32:09;;;;;;;;;20.00;20.00;;;;;4.80;82.77;100187.41;4847004;29;47362;-79
2024/01/15 02:34:34;;;;;;;;;34.00;29.67;;;;;4.69;82.59;100208.19;4864949;29;45508;-79
2024/01/15 02:37:00;;;;;;;;;26.33;24.00;;;;;4.53;83.27;100200.69;4849751;29;45296;-80
2024/01/15 02:39:25;;;;;;;;;32.67;28.33;;;;;4.49;83.66;100198.81;4866128;29;45340;-80
2024/01/15 02:41:50;;;;;;;;;16.67;14.33;;;;;4.48;83.98;100218.09;4864941;29;47330;-80
2024/01/15 02:44:16;;;;;;;;;32.67;28.67;;;;;4.41;83.85;100214.38;4862647;29;45748;-80
2024/01/15 02:46:41;;;;;;;;;22.67;19.33;;;;;4.37;84.35;100210.75;4864042;29;45272;-79
2024/01/15 02:49:07;;;;;;;;;29.00;26.00;;;;;4.40;84.16;100202.03;4848576;29;45537;-81
2024/01/15 02:51:32;;;;;;;;;25.00;25.00;;;;;4.46;84.01;100194.31;4864422;29;45421;-80
2024/01/15 02:53:57;;;;;;;;;28.00;22.33;;;;;4.48;84.60;100205.81;4864785;29;45460;-81
2024/01/15 02:56:23;;;;;;;;;30.67;22.33;;;;;4.53;84.18;100203.31;4848249;29;45332;-80
2024/01/15 02:58:48;;;;;;;;;27.67;24.00;;;;;4.41;84.59;100195.94;4832760;29;45706;-80
2024/01/15 03:01:13;;;;;;;;;35.33;28.00;;;;;4.41;84.57;100193.31;4847942;29;47164;-80
2024/01/15 03:03:40;;;;;;;;;26.00;20.67;;;;;4.52;84.70;100189.25;4864972;29;45439;-80
2024/01/15 03:06:06;;;;;;;;;27.33;23.33;;;;;4.51;85.02;100190.09;4848132;29;45488;-81
2024/01/15 03:08:31;;;;;;;;;32.00;25.67;;;;;4.51;84.84;100182.22;4865424;29;45496;-81
2024/01/15 03:10:57;;;;;;;;;29.33;27.00;;;;;4.57;84.90;100184.13;4848576;29;48208;-80
2024/01/15 03:13:22;;;;;;;;;34.00;27.67;;;;;4.50;84.33;100182.16;4849275;29;44937;-80
2024/01/15 03:15:49;;;;;;;;;26.33;23.33;;;;;4.67;84.36;100202.00;4849931;29;45598;-80
2024/01/15 03:18:14;;;;;;;;;26.67;24.00;;;;;4.56;84.36;100209.56;4847173;29;45458;-80
2024/01/15 03:20:39;;;;;;;;;28.33;23.67;;;;;4.50;84.80;100212.00;4847948;29;47349;-80
2024/01/15 03:23:05;;;;;;;;;22.67;22.67;;;;;4.39;84.70;100202.91;4867065;29;45324;-80
2024/01/15 03:25:30;;;;;;;;;25.00;20.67;;;;;4.39;85.05;100211.69;4849997;29;45662;-81
2024/01/15 03:27:56;;;;;;;;;25.33;21.00;;;;;4.39;84.97;100210.81;4848970;29;45509;-80
2024/01/15 03:30:28;;;;;;;;;30.00;27.33;;;;;4.50;84.78;100222.53;4849931;29;47235;-81
2024/01/15 03:32:53;;;;;;;;;31.33;24.33;;;;;4.39;85.30;100213.44;4848797;29;46174;-81
2024/01/15 03:35:19;;;;;;;;;25.00;24.33;;;;;4.40;85.82;100207.31;4851157;29;45985;-80
2024/01/15 03:37:44;;;;;;;;;28.67;22.00;;;;;4.45;85.52;100218.88;4848888;29;45370;-80
2024/01/15 03:40:10;;;;;;;;;27.67;22.67;;;;;4.52;85.24;100210.31;4848498;29;47042;-80
2024/01/15 03:42:36;;;;;;;;;22.67;20.33;;;;;4.52;84.97;100201.53;4849854;29;44859;-81
2024/01/15 03:45:01;;;;;;;;;24.00;20.33;;;;;4.58;85.34;100199.97;4848734;29;45564;-80
2024/01/15 03:47:26;;;;;;;;;29.33;27.00;;;;;4.64;85.86;100198.38;4849338;29;45502;-80
2024/01/15 03:49:52;;;;;;;;;26.67;22.33;;;;;4.71;85.98;100211.75;4847651;29;48101;-81
2024/01/15 03:52:17;;;;;;;;;26.33;23.00;;;;;4.68;85.29;100192.34;4844648;29;45458;-81
2024/01/15 03:54:43;;;;;;;;;26.67;22.33;;;;;4.74;84.96;100197.78;4845380;29;45636;-81
2024/01/15 03:57:08;;;;;;;;;34.00;26.00;;;;;4.73;85.23;100178.47;4846084;29;45450;-80
2024/01/15 03:59:33;;;;;;;;;34.00;27.67;;;;;4.74;85.66;100184.59;4847135;29;45478;-80
2024/01/15 04:01:59;;;;;;;;;27.00;20.67;;;;;4.78;85.51;100175.94;4847676;29;45351;-80
2024/01/15 04:04:24;;;;;;;;;24.33;23.00;;;;;4.79;85.33;100183.00;4846685;29;45826;-81
2024/01/15 04:06:50;;;;;;;;;23.67;21.67;;;;;4.78;85.91;100168.94;4847328;29;45499;-80
2024/01/15 04:09:15;;;;;;;;;27.00;23.00;;;;;4.74;85.85;100158.28;4846629;29;47963;-80
2024/01/15 04:11:42;;;;;;;;;22.67;19.00;;;;;4.76;85.62;100161.84;4846545;29;45526;-81
2024/01/15 04:14:07;;;;;;;;;25.00;19.33;;;;;4.69;85.83;100144.09;4830442;29;44925;-81
2024/01/15 04:16:33;;;;;;;;;21.33;19.00;;;;;4.70;86.16;100153.75;4847104;29;45404;-81
2024/01/15 04:18:58;;;;;;;;;30.33;23.00;;;;;4.74;86.27;100159.16;4843055;29;47281;-81
2024/01/15 04:21:24;;;;;;;;;22.67;20.67;;;;;4.77;85.87;100153.09;4829874;29;45364;-81
2024/01/15 04:23:49;;;;;;;;;22.00;19.00;;;;;4.72;86.88;100144.16;4830246;29;45382;-80
2024/01/15 04:26:15;;;;;;;;;19.00;17.67;;;;;4.77;86.51;100155.72;4830416;29;45340;-80
2024/01/15 04:28:40;;;;;;;;;16.33;15.67;;;;;4.76;87.05;100152.19;4829848;29;46836;-80
2024/01/15 04:31:06;;;;;;;;;23.67;21.00;;;;;4.76;87.02;100156.56;4845530;29;45414;-81
2024/01/15 04:33:31;;;;;;;;;22.67;18.33;;;;;4.72;86.68;100131.00;4845497;29;45355;-80
2024/01/15 04:35:57;;;;;;;;;13.00;12.00;;;;;4.79;86.42;100141.75;4846966;29;44964;-80
2024/01/15 04:38:22;;;;;;;;;20.00;18.33;;;;;4.73;87.32;100124.88;4844002;29;48373;-81
2024/01/15 04:40:48;;;;;;;;;24.33;22.00;;;;;4.78;86.68;100129.41;4830694;29;45666;-81
2024/01/15 04:43:13;;;;;;;;;27.67;26.00;;;;;4.79;87.56;100131.22;4842966;29;45422;-81
2024/01/15 04:45:38;;;;;;;;;23.00;18.33;;;;;4.80;87.60;100127.72;4829155;29;45396;-80
2024/01/15 04:48:04;;;;;;;;;18.67;18.67;;;;;4.76;88.15;100106.50;4827760;29;45501;-80
2024/01/15 04:50:30;;;;;;;;;21.67;19.00;;;;;4.85;88.00;100124.31;4842040;29;45459;-81
2024/01/15 04:52:56;;;;;;;;;21.67;16.67;;;;;4.97;88.15;100125.56;4826293;29;45729;-80
2024/01/15 04:58:43;;;;;;;;;19.33;18.00;;;;;4.94;88.61;100130.72;4828701;29;46312;-80
2024/01/15 05:01:17;;;;;;;;;17.67;17.33;;;;;4.95;88.79;100127.25;4841853;29;45392;-80
2024/01/15 05:03:42;;;;;;;;;19.00;16.33;;;;;4.91;88.59;100120.13;4843076;29;45432;-80
2024/01/15 05:06:10;;;;;;;;;17.67;17.00;;;;;5.01;89.42;100122.16;4842352;29;45694;-80
2024/01/15 05:08:36;;;;;;;;;18.33;16.33;;;;;4.95;89.46;100131.63;4827490;29;45931;-80
2024/01/15 05:11:02;;;;;;;;;15.33;15.33;;;;;5.00;89.24;100136.16;4827636;29;45523;-81
2024/01/15 05:13:27;;;;;;;;;16.33;15.00;;;;;5.03;89.46;100139.72;4826076;29;45453;-80
2024/01/15 05:15:56;;;;;;;;;19.33;17.00;;;;;5.13;89.50;100131.22;4827585;29;45416;-81
2024/01/15 05:18:21;;;;;;;;;18.00;17.00;;;;;4.99;89.88;100129.13;4842997;29;46919;-80
2024/01/15 05:20:47;;;;;;;;;20.67;16.67;;;;;5.02;89.68;100125.66;4828789;29;45340;-81
2024/01/15 05:23:12;;;;;;;;;19.67;16.67;;;;;5.04;89.32;100131.88;4843526;29;45462;-81
2024/01/15 05:25:38;;;;;;;;;20.33;18.67;;;;;5.03;89.54;100114.28;4829444;29;45796;-81
2024/01/15 05:28:04;;;;;;;;;19.67;16.67;;;;;5.04;89.56;100109.91;4829128;29;45693;-80
2024/01/15 05:30:31;;;;;;;;;14.33;11.67;;;;;5.10;89.87;100117.97;4843683;29;45300;-80
2024/01/15 05:33:03;;;;;;;;;22.00;20.33;;;;;4.99;90.76;100113.31;4828351;29;45538;-81
2024/01/15 05:35:36;;;;;;;;;24.00;19.33;;;;;5.09;89.99;100105.63;4843962;29;45380;-81
2024/01/15 05:38:02;;;;;;;;;16.33;15.33;;;;;5.02;90.35;100107.22;4844213;29;48148;-80
2024/01/15 05:40:28;;;;;;;;;19.33;16.00;;;;;5.01;90.06;100111.59;4830808;29;45734;-79
2024/01/15 05:42:54;;;;;;;;;17.67;17.67;;;;;5.01;90.08;100090.53;4829807;29;44798;-80
2024/01/15 05:45:20;;;;;;;;;15.67;12.33;;;;;4.96;90.67;100102.66;4844129;29;45505;-79
2024/01/15 05:47:46;;;;;;;;;16.00;16.00;;;;;4.90;90.24;100075.28;4843971;29;47433;-80
2024/01/15 05:50:12;;;;;;;;;18.33;14.67;;;;;4.92;90.44;100098.16;4827407;29;45938;-81
2024/01/15 05:52:38;;;;;;;;;14.00;14.00;;;;;4.95;90.50;100085.09;4826783;29;45024;-80
2024/01/15 05:55:04;;;;;;;;;19.00;16.00;;;;;5.05;90.97;100099.41;4843459;29;45317;-80
2024/01/15 05:57:30;;;;;;;;;16.67;14.33;;;;;4.98;90.60;100098.31;4842662;29;48395;-80
2024/01/15 05:59:56;;;;;;;;;20.67;17.67;;;;;5.01;90.58;100094.91;4828408;29;44886;-80
2024/01/15 06:02:23;;;;;;;;;19.67;16.33;;;;;5.13;90.54;100099.56;4828629;29;45513;-80
2024/01/15 06:04:48;;;;;;;;;16.00;16.00;;;;;5.05;90.86;100091.50;4829139;29;45448;-80
2024/01/15 06:07:14;;;;;;;;;15.67;15.67;;;;;5.05;91.02;100090.59;4829307;29;45413;-80
2024/01/15 06:09:39;;;;;;;;;22.67;17.33;;;;;5.05;91.11;100088.88;4842930;29;45480;-79
2024/01/15 06:12:07;;;;;;;;;20.67;18.00;;;;;5.13;91.18;100094.31;4828902;29;45536;-79
2024/01/15 06:14:32;;;;;;;;;21.00;18.33;;;;;5.02;91.31;100083.50;4827031;29;45390;-79
2024/01/15 06:16:58;;;;;;;;;21.67;20.33;;;;;5.07;91.42;100095.06;4843382;29;48208;-80
2024/01/15 06:19:23;;;;;;;;;21.67;19.67;;;;;5.12;90.77;100103.09;4843503;29;45590;-80
2024/01/15 06:21:50;;;;;;;;;21.00;13.67;;;;;5.12;90.87;100098.69;4844140;29;44929;-80
2024/01/15 06:24:17;;;;;;;;;19.00;16.00;;;;;5.12;91.09;100097.81;4843671;29;45654;-79
2024/01/15 06:26:43;;;;;;;;;17.00;17.00;;;;;5.08;91.37;100099.47;4829381;29;45497;-80
2024/01/15 06:29:08;;;;;;;;;17.67;17.67;;;;;5.09;91.51;100088.09;4829864;29;45404;-80
2024/01/15 06:31:35;;;;;;;;;20.33;16.00;;;;;5.25;91.65;100104.28;4845000;29;46054;-80
2024/01/15 06:34:01;;;;;;;;;23.00;21.33;;;;;5.17;91.37;100097.06;4843486;29;45736;-80
2024/01/15 06:36:27;;;;;;;;;17.00;16.67;;;;;5.25;91.29;100097.28;4847582;29;48152;-80
2024/01/15 06:38:53;;;;;;;;;21.00;20.33;;;;;5.12;90.55;100092.53;4848928;29;45486;-80
2024/01/15 06:41:18;;;;;;;;;18.67;14.33;;;;;5.13;91.35;100104.84;4846903;29;45401;-79
2024/01/15 06:43:44;;;;;;;;;23.00;20.67;;;;;5.12;91.67;100092.53;4847866;29;45479;-80
2024/01/15 06:46:22;;;;;;;;;30.67;24.00;;;;;5.28;90.94;100099.97;4846871;29;46382;-80
2024/01/15 06:48:48;;;;;;;;;13.67;11.33;;;;;5.12;91.06;100098.69;4846607;29;44800;-80
2024/01/15 06:51:13;;;;;;;;;20.00;20.00;;;;;5.17;91.83;100106.72;4845258;29;45363;-80
2024/01/15 06:53:40;;;;;;;;;25.67;25.00;;;;;5.24;91.15;100108.66;4850615;29;45648;-81
2024/01/15 06:56:07;;;;;;;;;17.00;17.00;;;;;5.17;91.56;100114.63;4847741;29;47302;-81
2024/01/15 06:58:33;;;;;;;;;25.00;20.67;;;;;5.13;91.29;100099.56;4848207;29;45237;-79
2024/01/15 07:00:59;;;;;;;;;24.00;21.67;;;;;5.08;91.72;100107.38;4865083;29;45434;-78
2024/01/15 07:03:24;;;;;;;;;24.33;17.33;;;;;5.14;91.60;100109.28;4847631;29;44921;-80
2024/01/15 07:05:50;;;;;;;;;24.33;23.67;;;;;5.09;92.50;100097.72;4863469;29;45966;-80
2024/01/15 07:08:16;;;;;;;;;12.33;12.33;;;;;5.04;92.02;100086.19;4848378;29;45433;-80
2024/01/15 07:10:41;;;;;;;;;35.33;27.00;;;;;4.97;92.45;100091.28;4865397;29;45451;-79
2024/01/15 07:13:07;;;;;;;;;29.33;26.33;;;;;4.97;92.01;100103.59;4847048;29;44875;-80
2024/01/15 07:15:32;;;;;;;;;17.67;17.67;;;;;5.01;92.51;100105.44;4846967;29;48782;-80
2024/01/15 07:17:57;;;;;;;;;24.33;18.00;;;;;5.04;92.01;100104.63;4861174;29;45883;-80
2024/01/15 07:20:23;;;;;;;;;27.33;20.33;;;;;5.04;92.66;100110.78;4846966;29;45351;-78
2024/01/15 07:22:51;;;;;;;;;24.67;23.67;;;;;5.06;91.99;100130.16;4832836;29;45640;-78
2024/01/15 07:25:17;;;;;;;;;25.33;19.67;;;;;5.02;92.50;100117.75;4831629;29;47544;-76
2024/01/15 07:27:44;;;;;;;;;19.33;17.00;;;;;4.98;91.92;100116.78;4833435;29;45345;-76
2024/01/15 07:30:11;;;;;;;;;23.67;23.00;;;;;4.97;91.67;100132.56;4833831;29;45427;-78
2024/01/15 07:32:37;;;;;;;;;26.00;22.00;;;;;4.93;92.71;100134.22;4847833;29;44763;-78
2024/01/15 07:35:02;;;;;;;;;27.33;24.33;;;;;4.89;92.72;100131.44;4834243;29;47134;-78
2024/01/15 07:37:28;;;;;;;;;28.00;24.00;;;;;4.87;92.76;100125.25;4830014;29;44873;-78
2024/01/15 07:39:54;;;;;;;;;17.67;17.67;;;;;4.87;93.35;100139.31;4832986;29;45794;-77
2024/01/15 07:42:19;;;;;;;;;27.67;24.67;;;;;4.79;92.63;100130.31;4848923;29;44928;-78
2024/01/15 07:44:44;;;;;;;;;24.33;22.00;;;;;4.87;93.08;100143.69;4847476;29;45590;-77
2024/01/15 07:47:10;;;;;;;;;25.33;25.33;;;;;4.75;94.52;100139.88;4832610;29;44959;-78
2024/01/15 07:49:35;;;;;;;;;28.00;23.33;;;;;4.67;94.01;100140.53;4852169;29;44796;-79
2024/01/15 07:52:01;;;;;;;;;31.33;24.00;;;;;4.69;93.88;100139.72;4835564;29;45305;-78
2024/01/15 07:54:26;;;;;;;;;31.67;27.00;;;;;4.75;94.81;100154.81;4854644;29;46543;-78
2024/01/15 07:57:45;;;;;;;;;30.00;26.00;;;;;4.94;94.16;100150.91;4843564;29;44920;-80
2024/01/15 08:00:18;;;;;;;;;19.67;19.67;;;;;4.79;94.39;100154.03;4853621;29;44862;-78
2024/01/15 08:02:45;;;;;;;;;30.67;23.00;;;;;4.90;94.12;100155.22;4835419;29;44998;-77
2024/01/15 08:05:10;;;;;;;;;31.33;24.00;;;;;4.83;95.04;100161.16;4836820;29;45394;-78
2024/01/15 08:07:36;;;;;;;;;24.00;23.33;;;;;4.78;94.68;100157.50;4850890;29;45284;-80
2024/01/15 08:10:02;;;;;;;;;28.67;27.00;;;;;4.78;95.19;100160.13;4834773;29;44832;-79
2024/01/15 08:12:27;;;;;;;;;29.33;25.33;;;;;4.85;95.51;100162.09;4846566;29;45457;-78
2024/01/15 08:14:54;;;;;;;;;27.00;24.33;;;;;4.90;94.24;100152.56;4869858;29;45135;-81
2024/01/15 08:17:23;;;;;;;;;24.67;21.67;;;;;5.01;94.37;100155.53;4846261;29;44992;-78
2024/01/15 08:19:51;;;;;;;;;20.00;19.33;;;;;5.06;94.29;100161.78;4825337;29;44859;-79
2024/01/15 08:22:18;;;;;;;;;33.67;24.00;;;;;5.08;94.41;100175.91;4839199;29;44863;-83
2024/01/15 08:24:44;;;;;;;;;26.67;23.67;;;;;5.00;93.37;100169.53;4839922;29;45482;-83
2024/01/15 08:27:10;;;;;;;;;26.67;23.00;;;;;5.03;94.17;100188.06;4837370;29;45663;-83
2024/01/15 08:29:35;;;;;;;;;30.33;26.33;;;;;5.00;93.90;100174.81;4821166;29;44884;-83
2024/01/15 08:32:01;;;;;;;;;25.33;25.33;;;;;5.04;94.73;100179.31;4854345;29;45585;-83
2024/01/15 08:34:32;;;;;;;;;35.67;28.67;;;;;5.14;94.97;100170.78;4843804;29;45460;-83
2024/01/15 08:36:58;;;;;;;;;28.67;27.00;;;;;5.07;94.50;100175.84;4841324;29;44868;-83
2024/01/15 08:39:27;;;;;;;;;31.00;26.00;;;;;5.07;94.39;100170.56;4840416;29;44804;-83
2024/01/15 08:41:55;;;;;;;;;26.67;25.33;;;;;5.09;94.58;100188.25;4854047;29;45464;-83
2024/01/15 08:44:20;;;;;;;;;26.67;19.00;;;;;5.08;93.89;100182.91;4841261;29;45128;-82
2024/01/15 08:46:51;;;;;;;;;30.00;25.67;;;;;5.18;94.09;100206.03;4856589;29;44852;-83
2024/01/15 08:49:17;;;;;;;;;28.00;24.33;;;;;5.01;93.97;100201.22;4861785;29;44918;-83
2024/01/15 08:51:42;;;;;;;;;25.33;21.67;;;;;4.99;93.97;100208.19;4872119;29;45465;-82
2024/01/15 08:54:09;;;;;;;;;13.00;12.33;;;;;5.07;93.83;100204.84;4854590;29;47121;-83
2024/01/15 08:56:35;;;;;;;;;33.67;25.00;;;;;5.04;93.41;100215.31;4872045;29;45623;-83
2024/01/15 08:59:05;;;;;;;;;22.33;20.33;;;;;5.20;94.06;100228.94;4872985;29;45455;-85
2024/01/15 09:01:31;;;;;;;;;28.33;24.00;;;;;5.09;93.29;100226.84;4872417;29;45473;-83
2024/01/15 09:03:59;;;;;;;;;27.67;21.33;;;;;5.20;93.26;100222.78;4872902;29;45602;-83
2024/01/15 09:06:24;;;;;;;;;21.67;16.33;;;;;5.12;92.62;100230.47;4842317;29;45483;-83
2024/01/15 09:08:50;;;;;;;;;29.33;24.00;;;;;5.10;91.45;100231.28;4854607;29;45105;-82
2024/01/15 09:11:15;;;;;;;;;23.33;18.67;;;;;5.03;91.40;100219.69;4839773;29;45045;-82
2024/01/15 09:13:47;;;;;;;;;24.67;20.00;;;;;5.00;91.25;100202.03;4850023;29;47958;-85
2024/01/15 09:16:13;;;;;;;;;16.33;16.33;;;;;4.96;90.24;100229.16;4841681;29;45440;-84
2024/01/15 09:21:20;;;;;;;;;21.00;19.00;;;;;5.16;88.56;100249.91;4900656;23;45606;-83
2024/01/15 09:23:48;;;;;;;;;20.33;18.00;;;;;4.95;87.84;100195.75;4891658;29;48539;-81
2024/01/15 09:26:21;;;;;;;;;34.33;27.00;;;;;5.04;88.17;100194.22;4884400;29;44848;-81
2024/01/15 09:28:53;;;;;;;;;25.33;21.33;;;;;4.97;87.82;100203.72;4874043;29;44909;-81
2024/01/15 09:31:23;;;;;;;;;9.67;8.33;;;;;5.01;88.32;100217.03;4873067;29;45360;-81
2024/01/15 09:33:51;;;;;;;;;18.67;15.33;;;;;4.87;88.33;100199.00;4892012;29;47305;-81
2024/01/15 09:36:20;;;;;;;;;22.33;18.00;;;;;5.00;88.31;100223.13;4890978;28;45467;-81
2024/01/15 09:38:45;;;;;;;;;21.33;17.00;;;;;4.91;88.10;100224.59;4886432;29;45032;-81
2024/01/15 09:41:11;;;;;;;;;24.00;21.00;;;;;5.08;88.38;100248.81;4875556;29;45343;-81
2024/01/15 09:43:39;;;;;;;;;21.33;20.00;;;;;5.27;88.48;100256.41;4877336;29;46978;-81
2024/01/15 09:46:10;;;;;;;;;16.67;16.67;;;;;5.24;87.64;100223.78;4857725;29;45337;-82
2024/01/15 09:49:06;;;;;;;;;25.00;20.33;;;;;5.39;87.17;100219.81;4876188;29;44947;-82
2024/01/15 09:51:32;;;;;;;;;21.00;20.67;;;;;5.41;87.08;100210.19;4889152;29;45378;-82
2024/01/15 09:53:58;;;;;;;;;17.00;15.67;;;;;5.60;85.98;100235.28;4890932;29;46388;-80
2024/01/15 09:56:24;;;;;;;;;19.00;16.67;;;;;5.72;86.55;100250.53;4883891;29;44979;-80
2024/01/15 09:58:52;;;;;;;;;12.67;12.67;;;;;5.72;84.25;100240.00;4849731;29;45496;-81
2024/01/15 10:04:19;;;;;;;;;14.00;14.00;;;;;5.67;83.21;100235.44;4878354;29;44934;-83
2024/01/15 10:07:54;;;;;;;;;18.33;15.33;;;;;5.80;83.36;100264.81;4875180;29;44933;-83
2024/01/15 10:10:27;;;;;;;;;20.67;17.67;;;;;5.75;82.53;100270.84;4878631;29;44900;-80
2024/01/15 10:12:56;;;;;;;;;14.00;14.00;;;;;5.63;81.96;100258.22;4875618;29;44912;-81
2024/01/15 10:15:26;;;;;;;;;13.00;12.00;;;;;5.59;81.33;100265.19;4884344;28;45474;-79
2024/01/15 10:17:56;;;;;;;;;15.33;13.33;;;;;5.61;80.69;100278.38;4885974;29;44881;-81
2024/01/15 10:20:34;;;;;;;;;13.33;12.00;;;;;5.71;80.19;100284.81;4858817;29;45688;-83
2024/01/15 10:23:00;;;;;;;;;14.67;14.67;;;;;5.59;80.78;100277.44;4867827;29;44901;-80
2024/01/15 10:25:25;;;;;;;;;13.00;10.00;;;;;5.59;80.68;100280.09;4872974;28;46731;-81
2024/01/15 10:28:02;;;;;;;;;12.67;12.00;;;;;5.68;80.46;100267.16;4903319;28;44846;-82
2024/01/15 10:30:28;;;;;;;;;14.33;9.67;;;;;5.56;76.55;100277.38;4873726;29;45539;-83
2024/01/15 10:33:18;;;;;;;;;;;;;;;;;;;;;
2024/01/15 10:35:45;;;;;;;;;9.67;7.33;;;;;5.67;77.80;100280.28;4868679;29;74671;-78
2024/01/15 10:38:11;;;;;;;;;8.33;8.33;;;;;5.69;76.87;100281.22;4842537;29;45520;-81
2024/01/15 10:40:37;;;;;;;;;7.00;6.00;;;;;5.70;75.88;100293.59;4841111;29;45295;-82
2024/01/15 10:43:03;;;;;;;;;8.00;8.00;;;;;5.80;76.06;100285.94;4838052;29;45217;-81
2024/01/15 10:45:28;;;;;;;;;10.00;8.00;;;;;5.85;75.77;100291.31;4843202;29;46803;-82
2024/01/15 10:48:01;;;;;;;;;8.00;8.00;;;;;5.78;74.45;100270.94;4855913;29;45104;-81
2024/01/15 10:50:32;;;;;;;;;5.67;5.67;;;;;5.95;71.45;100287.22;4854460;29;45821;-81
2024/01/15 10:52:58;;;;;;;;;6.67;6.67;;;;;5.65;69.15;100263.53;4858081;29;44902;-80
2024/01/15 10:55:24;;;;;;;;;8.33;3.33;;;;;5.82;70.70;100300.06;4856589;29;47046;-81
2024/01/15 10:57:49;;;;;;;;;2.00;1.00;;;;;5.72;73.11;100279.56;4858180;29;45351;-82
2024/01/15 11:00:15;;;;;;;;;9.00;7.00;;;;;5.93;72.67;100300.34;4872710;29;44921;-82
2024/01/15 11:02:42;;;;;;;;;5.67;5.67;;;;;5.91;70.66;100288.84;4845081;29;44999;-82
2024/01/15 11:05:59;;;;;;;;;5.67;4.00;;;;;6.10;68.89;100295.53;4841187;29;47069;-82
2024/01/15 11:08:34;;;;;;;;;5.33;5.00;;;;;5.99;69.15;100287.31;4859718;29;44885;-81
2024/01/15 11:11:03;;;;;;;;;4.00;4.00;;;;;5.98;67.91;100277.63;4875727;29;45424;-81
2024/01/15 11:14:07;;;;;;;;;0.00;0.00;;;;;6.01;67.94;100264.50;4843317;29;44892;-83
2024/01/15 11:17:00;;;;;;;;;1.00;1.00;;;;;6.15;67.21;100304.44;4868537;29;46450;-83
2024/01/15 11:19:41;;;;;;;;;1.00;1.00;;;;;5.90;65.75;100276.53;4864683;29;45524;-81
2024/01/15 11:22:33;;;;;;;;;4.33;4.33;;;;;6.04;68.23;100274.25;4858051;29;45492;-77
2024/01/15 11:25:20;;;;;;;;;3.67;3.67;;;;;6.16;67.36;100300.97;4835517;29;45023;-77
2024/01/15 11:28:04;;;;;;;;;5.00;2.00;;;;;5.96;65.89;100275.81;4857578;29;46291;-79
2024/01/15 11:33:53;;;;;;;;;2.00;2.00;;;;;6.12;63.88;100288.53;4856349;29;45407;-82
2024/01/15 11:36:42;;;;;;;;;5.00;4.33;;;;;6.07;63.17;100282.25;4840349;29;45037;-79